Weather observations for the past three days for
Okmulgee, Okmulgee Municipal Airport
Imperial (Metric)
Date Time (cdt) Wind (mph) Vis. (mi.) Weather Sky Cond. Temperature (ºF) Relative Humidity Wind Chill (°F) Heat Index (°F) Pressure Precipitation (in)
Air Dwpt 6 hour altimeter (in) sea level (mb) 1 hr 3 hr 6 hr
Max. Min.
04 21:55 SE 10 10.00 Fair CLR 71.6 56.1 58% 29.64 0.0
04 21:35 S 13 10.00 Fair CLR 71.4 56.1 59% 29.65 0.0
04 21:15 S 10 G 16 10.00 Fair CLR 71.2 56.3 59% 29.65 0.0
04 20:55 SE 8 G 16 10.00 Fair CLR 71.8 56.1 58% 29.65 0.0
04 20:35 SE 8 10.00 Fair CLR 72.1 55.8 56% 29.64 0.0
04 20:15 SE 10 G 16 10.00 Fair CLR 72.7 56.3 57% 29.64 0.0
04 19:55 S 10 10.00 Fair CLR 73.4 56.3 55% 29.64 0.0
04 19:35 S 13 G 17 10.00 Fair CLR 74.5 56.8 54% 29.64 0.0
04 19:15 S 14 G 23 10.00 Fair CLR 75.7 56.5 51% 78 29.64 0.0
04 18:55 S 17 G 22 10.00 Fair CLR 76.3 56.7 81.3 76.3 51% 78 29.65 0.0
04 18:35 S 10 10.00 Fair CLR 77 57.4 51% 79 29.66 0.0
04 18:15 S 16 G 22 10.00 Fair CLR 77.9 57.4 49% 79 29.65 0.0
04 17:55 S 16 G 22 10.00 Fair CLR 78.1 57 48% 79 29.66 0.0
04 17:35 S 20 G 25 10.00 Fair CLR 77.9 57.2 49% 79 29.66 0.0
04 17:15 S 21 G 29 10.00 Fair and Breezy CLR 78.8 57.7 49% 80 29.65 0.0
04 16:55 S 22 G 28 10.00 Fair and Breezy CLR 79.2 57.4 47% 80 29.66 0.0
04 16:35 S 20 G 26 10.00 Fair CLR 79.7 57.2 46% 80 29.66 0.0
04 16:15 S 24 G 29 10.00 Fair and Breezy CLR 81.3 57.9 45% 81 29.67 0.0
04 15:55 S 20 G 29 10.00 Fair CLR 80.6 57.2 45% 81 29.67 0.0
04 15:35 S 24 G 29 10.00 Fair and Breezy CLR 80.6 57.4 45% 81 29.68 0.0
04 15:15 S 20 G 28 10.00 Fair CLR 79.9 57.7 47% 80 29.69 0.0
04 14:55 S 22 G 29 10.00 Fair and Breezy CLR 80.1 57.6 46% 81 29.7 0.0
04 14:35 S 17 G 24 10.00 Fair CLR 80.1 56.8 45% 80 29.71 0.0
04 14:15 S 22 G 30 10.00 Fair and Breezy CLR 79.2 56.3 46% 80 29.72 0.0
04 13:55 S 21 G 29 10.00 Fair and Breezy CLR 78.8 55.6 45% 79 29.73 0.0
04 13:35 S 16 G 25 10.00 Fair CLR 78.6 56.3 46% 79 29.74 0.0
04 13:15 S 18 G 29 10.00 Fair CLR 78.6 55.9 46% 79 29.75 0.0
04 12:55 S 14 G 29 10.00 Fair CLR 79 57.2 79 62.1 47% 80 29.75 0.0
04 12:35 S 18 G 24 10.00 Fair CLR 77.9 55.9 47% 79 29.76 0.0
04 12:15 S 21 G 31 10.00 Fair and Breezy CLR 77.5 55.9 47% 79 29.76 0.0
04 11:55 S 18 G 28 10.00 Fair CLR 77 55.8 48% 79 29.77 0.0
04 11:35 S 16 G 26 10.00 Fair CLR 76.3 54.9 48% 78 29.78 0.0
04 11:15 S 20 G 26 10.00 Fair CLR 75 54.3 49% 78 29.78 0.0
04 10:55 SW 15 G 25 10.00 Fair CLR 74.3 53.6 49% 29.79 0.0
04 10:35 S 18 G 25 10.00 Fair CLR 73.6 53.1 49% 29.79 0.0
04 10:15 SW 15 G 26 10.00 Fair CLR 72.5 52.3 49% 29.8 0.0
04 09:55 S 17 G 26 10.00 Fair CLR 72.3 51.8 49% 29.8 0.0
04 09:35 S 21 G 28 10.00 Fair and Breezy CLR 71.2 51.3 49% 29.81 0.0
04 09:15 SW 16 G 20 10.00 Fair CLR 69.4 50.4 51% 29.81 0.0
04 08:55 S 15 G 23 10.00 Fair CLR 67.8 49.8 53% 29.81 0.0
04 08:35 SW 12 G 18 10.00 Fair CLR 66.2 49.3 55% 29.82 0.0
04 08:15 SW 13 G 17 10.00 Fair CLR 64.9 49.1 57% 29.82 0.0
04 07:55 SW 9 10.00 Fair CLR 64 48.9 58% 29.82 0.0
04 07:35 S 9 10.00 Fair CLR 63.1 48.4 59% 29.82 0.0
04 07:15 S 9 10.00 Fair CLR 62.6 48 59% 29.82 0.0
04 06:55 SW 8 G 16 10.00 Fair CLR 62.4 47.5 68.4 62.1 58% 29.82 0.0
04 06:35 S 8 10.00 Fair CLR 62.2 47.3 58% 29.82 0.0
04 06:15 S 9 10.00 Fair CLR 62.8 47.3 57% 29.81 0.0
04 05:55 S 10 G 17 10.00 Fair CLR 63.5 46.9 55% 29.82 0.0
04 05:35 S 13 G 17 10.00 Fair CLR 63.9 46.8 54% 29.82 0.0
04 05:15 S 10 10.00 Fair CLR 64.6 46.8 53% 29.83 0.0
04 04:55 SW 12 G 18 10.00 Fair CLR 65.1 46.8 52% 29.83 0.0
04 04:35 S 12 G 17 10.00 Fair CLR 65.3 46.8 51% 29.84 0.0
04 04:15 S 13 G 20 10.00 Fair CLR 65.5 46.6 51% 29.84 0.0
04 03:55 SW 10 G 17 10.00 Fair CLR 65.7 46.4 50% 29.84 0.0
04 03:35 SW 15 G 22 10.00 Fair CLR 66.4 46.4 49% 29.84 0.0
04 03:15 SW 14 G 22 10.00 Fair CLR 66.7 46.4 48% 29.84 0.0
04 02:55 SW 14 G 18 10.00 Fair CLR 67.1 45.9 47% 29.85 0.0
04 02:35 SW 13 G 18 10.00 Fair CLR 67.3 45.5 46% 29.85 0.0
04 02:15 SW 14 G 23 10.00 Fair CLR 67.3 45 45% 29.86 0.0
04 01:55 SW 14 G 22 10.00 Fair CLR 68 44.6 43% 29.87 0.0
04 01:35 SW 15 G 21 10.00 Fair CLR 68 44.6 43% 29.88 0.0
04 01:15 S 15 G 22 10.00 Fair CLR 68.4 44.6 43% 29.88 0.0
04 00:55 SW 14 G 21 10.00 Fair CLR 68.4 44.6 80.4 67.6 43% 29.89 0.0
04 00:35 SW 13 G 18 10.00 Fair CLR 68.4 44.8 43% 29.89 0.0
04 00:15 SW 10 10.00 Fair CLR 68.2 44.8 43% 29.89 0.0
03 23:55 SW 9 10.00 Fair CLR 68.2 45 43% 29.89 0.0
03 23:35 S 7 10.00 Fair CLR 68.4 45.1 43% 29.89 0.0
03 23:15 S 7 10.00 Fair CLR 67.6 45.5 45% 29.91 0.0
03 22:55 S 7 10.00 Fair CLR 68.9 45.5 43% 29.91 0.0
03 22:35 S 10 10.00 Fair CLR 70.7 45.5 41% 29.91 0.0
03 22:15 S 10 10.00 Fair CLR 70.7 46 41% 29.91 0.0
03 21:55 S 9 10.00 Fair CLR 71.4 45.7 40% 29.91 0.0
03 21:35 S 9 10.00 Fair CLR 71.8 45.7 39% 29.91 0.0
03 21:15 S 9 10.00 Fair CLR 72.7 45.9 38% 29.9 0.0
03 20:55 S 7 10.00 Fair CLR 73.2 46 38% 29.89 0.0
03 20:35 SW 7 10.00 Fair CLR 74.7 46 36% 29.89 0.0
03 20:15 S 9 10.00 Fair CLR 75.7 45.5 34% 77 29.89 0.0
03 19:55 S 9 10.00 Fair CLR 77.2 45.1 32% 78 29.89 0.0
03 19:35 SW 8 10.00 Fair CLR 78.6 45 30% 78 29.89 0.0
03 19:15 SW 9 10.00 Fair CLR 79.3 44.4 29% 79 29.89 0.0
03 18:55 SW 10 G 17 10.00 Fair CLR 80.6 44.4 84.6 77.5 28% 79 29.89 0.0
03 18:35 SW 12 G 17 10.00 Fair CLR 81.1 43.2 26% 80 29.89 0.0
03 18:15 SW 13 G 21 10.00 Fair CLR 82.2 42.8 25% 80 29.89 0.0
03 17:55 SW 9 G 21 10.00 Fair CLR 82.8 41.9 24% 81 29.89 0.0
03 17:35 SW 15 G 21 10.00 Fair CLR 83.3 43.2 24% 81 29.9 0.0
03 17:15 SW 10 G 18 10.00 Fair CLR 83.8 43 24% 81 29.9 0.0
03 16:55 SW 13 G 20 10.00 Fair CLR 84 42.6 23% 81 29.9 0.0
03 16:35 SW 14 G 21 10.00 Fair CLR 84 41.9 23% 81 29.91 0.0
03 16:15 SW 15 G 18 10.00 Fair CLR 84.4 44.4 25% 82 29.92 0.0
03 15:55 SW 14 G 21 10.00 Fair CLR 84 42.1 23% 81 29.93 0.0
03 15:35 SW 13 G 21 10.00 Fair CLR 84 39 20% 81 29.94 0.0
03 15:15 SW 13 G 22 10.00 Fair CLR 83.3 46.6 28% 81 29.95 0.0
03 14:55 SW 15 G 20 10.00 Fair CLR 83.3 47.7 29% 81 29.96 0.0
03 14:35 SW 10 G 20 10.00 Fair CLR 82.8 49.1 31% 81 29.97 0.0
03 14:15 SW 9 G 17 10.00 Fair CLR 82.2 52.2 35% 81 29.98 0.0
03 13:55 S 14 G 18 10.00 Fair CLR 80.6 52.2 37% 80 29.98 0.0
03 13:35 SW 13 G 18 10.00 Fair CLR 80.1 53.1 39% 80 29.99 0.0
03 13:15 SW 6 10.00 Fair CLR 78.4 53.1 41% 79 30.01 0.0
03 12:55 S 12 G 16 10.00 Fair CLR 77.4 52.9 77.7 47.5 43% 79 30.02 0.0
03 12:35 S 10 10.00 Fair CLR 76.1 52.2 43% 78 30.03 0.0
03 12:15 S 10 G 17 10.00 Fair CLR 75.2 51.4 44% 78 30.04 0.0
03 11:55 SW 14 10.00 Fair CLR 74.3 51.1 44% 30.05 0.0
03 11:35 S 10 10.00 Fair CLR 73.6 50.2 44% 30.05 0.0
03 11:15 S 8 10.00 Fair CLR 72.1 50.7 47% 30.05 0.0
03 10:55 SW 9 10.00 Fair CLR 71.1 50.2 48% 30.06 0.0
03 10:35 SW 13 G 18 10.00 Fair CLR 70 50.5 50% 30.06 0.0
03 10:15 SW 10 10.00 Fair CLR 68.2 49.3 51% 30.06 0.0
03 09:55 SW 13 G 18 10.00 Fair CLR 67.3 48.4 51% 30.06 0.0
03 09:35 S 10 10.00 Fair CLR 66.4 48.2 52% 30.07 0.0
03 09:15 S 10 10.00 Fair CLR 64.4 47.7 55% 30.07 0.0
03 08:55 S 9 10.00 Fair CLR 61.9 46.6 57% 30.08 0.0
03 08:35 S 9 10.00 Fair CLR 59.9 46 60% 30.07 0.0
03 08:15 S 7 10.00 Fair CLR 57.7 45 63% 30.07 0.0
03 07:55 S 7 10.00 Fair CLR 56.3 45.3 67% 30.07 0.0
03 07:35 S 5 10.00 Fair CLR 53.6 44.6 72% 30.08 0.0
03 07:15 S 6 10.00 Fair CLR 52.5 43 70% 30.07 0.0
03 06:55 S 3 10.00 Fair CLR 46.9 44.1 47.1 44.2 90% 30.07 0.0
03 06:35 Calm 10.00 Fair CLR 45.5 45.1 99% 30.07 0.0
03 06:15 Calm 10.00 Fair CLR 44.6 44.6 100% 30.07 0.0
03 05:55 Calm 10.00 Fair CLR 44.8 44.2 98% 30.07 0.0
03 05:35 Calm 10.00 Fair CLR 45 44.8 99% 30.08 0.0
03 05:15 Calm 10.00 Fair CLR 44.8 44.8 100% 30.09 0.0
03 04:55 Calm 10.00 Fair CLR 44.4 44.4 100% 30.09 0.0
03 04:35 Calm 10.00 Fair CLR 44.8 44.8 100% 30.1 0.0
03 04:15 Calm 10.00 Fair CLR 45.3 45.3 100% 30.1 0.0
03 03:55 Calm 10.00 Fair CLR 44.8 44.8 100% 30.1 0.0
03 03:35 Calm 10.00 Fair CLR 45 45 100% 30.11 0.0
03 03:15 Calm 10.00 Fair CLR 45.7 45.5 99% 30.11 0.0
03 02:55 Calm 10.00 Fair CLR 45.1 45.1 100% 30.11 0.0
03 02:35 Calm 10.00 Fair CLR 45.9 45.3 98% 30.12 0.0
03 02:15 Calm 10.00 Fair CLR 45.9 45 97% 30.12 0.0
03 01:55 Calm 10.00 Fair CLR 46.6 45.3 95% 30.13 0.0
03 01:35 Calm 10.00 Fair CLR 46 44.6 95% 30.13 0.0
03 01:15 Calm 10.00 Fair CLR 46.9 44.4 91% 30.13 0.0
03 00:55 Calm 10.00 Fair CLR 47.3 43.5 69.8 47.1 87% 30.13 0.0
03 00:35 Calm 10.00 Fair CLR 48.6 43.9 84% 30.13 0.0
03 00:15 Calm 10.00 Fair CLR 48.2 45.5 90% 30.13 0.0
02 23:55 Calm 10.00 Fair CLR 48.2 43.7 85% 30.12 0.0
02 23:35 Calm 10.00 Fair CLR 49.3 44.4 83% 30.12 0.0
02 23:15 Calm 10.00 Fair CLR 50.7 42.6 74% 30.12 0.0
02 22:55 Calm 10.00 Fair CLR 52 43 72% 30.12 0.0
02 22:35 Calm 10.00 Fair CLR 54.7 42.8 64% 30.12 0.0
02 22:15 N 3 10.00 Fair CLR 52.9 44.2 73% 30.12 0.0
02 21:55 Calm 10.00 Fair CLR 52.7 44.6 74% 30.11 0.0
02 21:35 NE 5 10.00 Fair CLR 54.9 45.9 72% 30.11 0.0
02 21:15 Calm 10.00 Fair CLR 56.5 45 66% 30.1 0.0
02 20:55 Calm 10.00 Fair CLR 56.3 46.2 69% 30.09 0.0
02 20:35 Calm 10.00 Fair CLR 59.2 44.2 58% 30.09 0.0
02 20:15 Calm 10.00 Fair CLR 61.3 44.4 54% 30.09 0.0
02 19:55 NE 3 10.00 Fair CLR 64.2 44.4 49% 30.09 0.0
02 19:35 NE 5 10.00 Fair CLR 66.6 43.9 44% 30.09 0.0
02 19:15 N 5 10.00 Fair CLR 68.5 43.5 41% 30.09 0.0
02 18:55 N 7 10.00 Fair CLR 69.8 42.3 72.5 68.2 37% 30.08 0.0
02 18:35 N 5 10.00 Fair CLR 70.9 38.8 31% 30.09 0.0
02 18:15 NW 6 10.00 Fair CLR 71.2 38.3 30% 30.09 0.0
02 17:55 NW 3 10.00 Fair CLR 72.1 38.7 30% 30.09 0.0
02 17:35 NW 3 10.00 Fair CLR 71.8 39.2 31% 30.09 0.0
02 17:15 NW 5 10.00 Fair CLR 72 40.3 32% 30.09 0.0
02 16:55 Calm 10.00 Partly Cloudy SCT070 71.8 42.1 34% 30.09 0.0
02 16:35 N 8 10.00 Partly Cloudy SCT070 72.3 43.7 36% 30.1 0.0
02 16:15 Calm 10.00 Partly Cloudy SCT065 71.4 42.6 35% 30.11 0.0
02 15:55 NE 3 10.00 Mostly Cloudy BKN075 BKN085 69.8 42.3 37% 30.11 0.0
02 15:35 NE 5 10.00 Mostly Cloudy SCT075 BKN085 71.6 42.8 36% 30.12 0.0
02 15:15 N 6 10.00 Partly Cloudy SCT075 SCT085 70 43 38% 30.13 0.0
02 14:55 Calm 10.00 Partly Cloudy SCT065 69.6 42.6 38% 30.13 0.0
02 14:35 N 5 10.00 Mostly Cloudy SCT060 BKN075 69.4 43 39% 30.14 0.0
02 14:15 N 5 10.00 Partly Cloudy SCT060 SCT075 69.6 42.1 37% 30.14 0.0
02 13:55 NW 6 10.00 Partly Cloudy SCT060 SCT075 70.3 42.1 36% 30.15 0.0
02 13:30 Calm 10.00 Partly Cloudy SCT060 68.9 43.2 40% 30.15 0.0
02 13:15 N 5 10.00 Partly Cloudy SCT060 70 43.9 39% 30.16 0.0
02 12:55 Calm 10.00 Fair CLR 68.7 43.3 69.1 47.5 40% 30.16 0.0
02 12:35 NW 9 10.00 Partly Cloudy SCT055 68 44.6 43% 30.17 0.0
02 12:15 N 6 10.00 Partly Cloudy SCT050 68.7 45 43% 30.18 0.0
02 11:55 NE 6 10.00 Fair CLR 66.9 44.8 45% 30.17 0.0
02 11:35 N 7 10.00 Fair CLR 66.6 45.7 47% 30.17 0.0
02 11:15 Calm 10.00 Fair CLR 65.1 45.1 49% 30.18 0.0
02 10:55 E 5 10.00 Fair CLR 64.4 45.1 50% 30.17 0.0
02 10:35 N 6 10.00 Fair CLR 63 45.3 53% 30.17 0.0
02 10:15 NE 6 10.00 Partly Cloudy SCT080 62.8 46.2 55% 30.18 0.0
02 09:55 NE 9 10.00 Partly Cloudy SCT080 61.9 45.7 56% 30.18 0.0
02 09:35 NE 9 10.00 Fair CLR 61 45.3 57% 30.17 0.0
02 09:15 N 8 10.00 Fair CLR 61.2 45.7 57% 30.17 0.0
02 08:55 N 5 10.00 Partly Cloudy SCT095 SCT110 59.5 45.5 60% 30.17 0.0
02 08:35 N 3 10.00 Partly Cloudy SCT095 SCT110 57.6 46.2 66% 30.16 0.0
02 08:15 W 3 10.00 Fair CLR 54.3 44.8 70% 30.16 0.0
02 07:55 W 3 10.00 Fair CLR 52.3 44.4 75% 30.15 0.0
02 07:35 Calm 10.00 Fair CLR 49.3 43.9 82% 30.15 0.0
02 07:15 Calm 10.00 Fair CLR 47.5 43.7 87% 30.14 0.0
02 06:55 Calm 10.00 Partly Cloudy SCT095 49.5 42.8 53.1 43.9 78% 30.12 0.0
02 06:35 SW 6 10.00 Mostly Cloudy BKN095 BKN110 50.5 42.6 74% 30.13 0.0
02 06:15 SW 3 10.00 Overcast SCT075 BKN095 OVC110 52.7 41.9 67% 30.12 0.0
02 05:55 W 6 10.00 Overcast OVC095 52.9 41.7 66% 30.14 0.0
02 05:35 Calm 10.00 Overcast OVC095 51.8 41.7 69% 30.13 0.0
02 05:15 N 3 10.00 Overcast OVC095 51.3 41 68% 30.13 0.0
02 04:55 N 7 10.00 Overcast OVC095 50.9 41 69% 30.12 0.0
02 04:35 N 6 10.00 Overcast OVC085 49.3 43.3 80% 47 30.12 0.0
02 04:15 Calm 10.00 Overcast OVC085 48.4 45 88% 30.1 0.0
02 03:55 Calm 10.00 Overcast BKN085 OVC110 47.5 46.9 98% 30.1 0.0
02 03:35 Calm 10.00 Overcast BKN085 OVC110 46.9 46.8 99% 30.09 0.0
02 03:15 Calm 10.00 Overcast OVC100 46.4 46.4 100% 30.09 0.0
02 02:55 Calm 10.00 Mostly Cloudy SCT085 BKN100 45 44.6 99% 30.09 0.0
02 02:35 Calm 10.00 Overcast OVC100 45 45 100% 30.09 0.0
02 02:15 Calm 10.00 Mostly Cloudy BKN100 44.6 44.6 100% 30.09 0.0
02 01:55 Calm 10.00 Fair CLR 44.1 43.9 99% 30.09 0.0
02 01:35 Calm 10.00 Fair CLR 45 44.8 99% 30.1 0.0
02 01:10 Calm 10.00 Fair CLR 45.7 44.2 95% 30.1 0.0
02 00:55 Calm 10.00 Fair CLR 45.9 44.1 63.9 45.9 93% 30.09 0.0
02 00:35 Calm 10.00 Fair CLR 46.6 43.2 88% 30.09 0.0
02 00:15 Calm 10.00 Fair CLR 46.6 44.1 91% 30.09 0.0
01 23:55 Calm 10.00 Fair CLR 46.6 42.8 87% 30.1 0.0
01 23:35 Calm 10.00 Fair CLR 47.3 42.1 82% 30.1 0.0
01 23:15 Calm 10.00 Fair CLR 48.6 42.8 81% 30.1 0.0
01 22:55 Calm 10.00 Fair CLR 48.4 44.8 87% 30.1 0.0
01 22:35 Calm 10.00 Fair CLR 49.6 43.9 81% 30.11 0.0
Date Time (cdt) Wind (mph) Vis. (mi.) Weather Sky Cond. Air Dwpt Max. Min. Relative Humidity Wind Chill (°F) Heat Index (°F) altimeter (in) sea level (mb) 1 hr 3 hr 6 hr
6 hour
Temperature (ºF) Pressure Precipitation (in)